createdAt,value
2019-06-27T11:45:48.163Z,1011.44
2019-06-27T11:46:47.978Z,1011.39
2019-06-27T11:47:46.519Z,1011.34
2019-06-27T11:48:44.053Z,1011.28
2019-06-27T11:49:46.388Z,1011.37
2019-06-27T11:50:50.065Z,1011.42
2019-06-27T11:51:44.584Z,1011.37
2019-06-27T11:52:47.176Z,1011.28
2019-06-27T11:53:47.748Z,1011.33
2019-06-27T11:54:45.525Z,1011.27
2019-06-27T11:55:40.321Z,1011.37
2019-06-27T11:56:34.799Z,1011.43
2019-06-27T11:57:39.187Z,1011.35
2019-06-27T11:58:33.682Z,1011.33
2019-06-27T11:59:36.896Z,1011.42
2019-06-27T12:00:40.651Z,1011.26
2019-06-27T12:01:46.400Z,1011.32
2019-06-27T12:02:42.405Z,1011.32
2019-06-27T12:03:49.418Z,1011.27
2019-06-27T12:03:49.758Z,1011.27
2019-06-27T12:04:45.950Z,1011.24
2019-06-27T12:05:44.880Z,1011.29
2019-06-27T12:06:41.204Z,1011.3
2019-06-27T12:07:35.944Z,1011.25
2019-06-27T12:08:57.075Z,1011.26
2019-06-27T12:09:50.731Z,1011.29
2019-06-27T12:10:48.790Z,1011.26
2019-06-27T12:11:51.378Z,1011.19
2019-06-27T12:12:47.831Z,1011.16
2019-06-27T12:13:50.682Z,1011.22
2019-06-27T12:14:53.019Z,1011.19
2019-06-27T12:15:51.999Z,1011.16
2019-06-27T12:16:52.263Z,1011.17
2019-06-27T12:17:51.743Z,1011.23
2019-06-27T12:19:54.517Z,1011.23
2019-06-27T12:20:54.585Z,1011.28
2019-06-27T12:21:53.771Z,1011.22
2019-06-27T12:22:53.271Z,1011.1
2019-06-27T12:23:54.593Z,1011.22
2019-06-27T12:24:52.447Z,1011.14
2019-06-27T14:16:14.601Z,1012.08
2019-06-27T14:16:46.215Z,1012.19
2019-06-27T14:17:46.177Z,1012.18
2019-06-27T14:18:44.187Z,1012.14
2019-06-27T14:19:41.980Z,1012.18
2019-06-27T14:20:41.655Z,1012.15
2019-06-27T14:21:39.289Z,1012.15
2019-06-27T14:22:37.100Z,1012.1
2019-06-27T14:23:35.806Z,1012.15
2019-06-27T14:24:33.940Z,1012.16
2019-06-27T14:25:31.741Z,1012.07
2019-06-27T14:26:29.699Z,1012.17
2019-06-27T14:27:39.484Z,1012
2019-06-27T14:28:37.015Z,1012.03
2019-06-27T14:29:34.911Z,1011.95
2019-06-27T14:30:34.596Z,1012.03
2019-06-27T14:31:33.662Z,1012.06
2019-06-27T14:32:31.053Z,1012.08
2019-06-27T14:33:29.795Z,1012.1
2019-06-27T14:34:27.606Z,1012.1
2019-06-27T14:35:25.286Z,1012.02
2019-06-27T14:36:23.666Z,1012.17
2019-06-27T14:37:22.347Z,1012.11
2019-06-27T14:38:19.773Z,1011.99
2019-06-27T14:39:17.453Z,1012.06
2019-06-27T14:40:14.846Z,1012.2
2019-06-27T14:41:13.642Z,1012.15
2019-06-27T14:42:12.317Z,1012.14
2019-06-27T14:43:09.908Z,1012.05
2019-06-27T14:44:07.481Z,1012.11
2019-06-27T14:45:04.912Z,1011.97
2019-06-27T14:46:02.692Z,1011.99
2019-06-27T14:47:00.550Z,1011.93
2019-06-27T14:47:58.097Z,1011.96
2019-06-27T14:48:57.162Z,1011.93
2019-06-27T14:49:55.154Z,1011.99
2019-06-27T14:50:53.227Z,1012.04
2019-06-27T14:51:51.228Z,1012.02
2019-06-27T14:52:49.322Z,1011.96
2019-06-27T14:53:47.848Z,1011.99
2019-06-27T14:54:47.377Z,1012.03
2019-06-27T14:55:43.731Z,1011.9
2019-06-27T14:56:41.588Z,1012.04
2019-06-27T14:57:39.065Z,1011.95
2019-06-27T14:58:36.889Z,1011.94
2019-06-27T14:59:34.701Z,1011.93
2019-06-27T15:00:34.009Z,1011.99
2019-06-27T15:01:32.283Z,1011.99
2019-06-27T15:02:30.113Z,1012.05
2019-06-27T15:03:32.794Z,1011.96
2019-06-27T15:04:30.171Z,1011.92
2019-06-27T15:05:33.204Z,1011.93
2019-06-27T15:05:33.781Z,1011.93
2019-06-27T15:06:26.729Z,1011.92
2019-06-27T15:07:24.751Z,1011.87
2019-06-27T15:08:22.757Z,1011.83
2019-06-27T15:09:26.759Z,1011.87
2019-06-27T15:10:24.734Z,1011.87
2019-06-27T15:11:23.294Z,1011.86
2019-06-27T15:12:21.548Z,1011.92
2019-06-27T15:13:19.003Z,1011.9
2019-06-27T15:23:00.225Z,1012
2019-06-27T15:23:56.727Z,1011.82
2019-06-27T15:24:54.633Z,1011.87
2019-06-27T15:25:51.445Z,1011.89
2019-06-27T15:26:50.697Z,1011.92
2019-06-27T15:28:36.379Z,1011.88
2019-06-27T15:29:33.509Z,1011.88
2019-06-27T15:30:31.242Z,1011.91
2019-06-27T15:38:53.939Z,1011.89
2019-06-27T15:39:56.084Z,1011.88
2019-06-27T15:40:55.574Z,1011.82
2019-06-27T15:48:32.086Z,1011.77
2019-06-27T15:49:35.981Z,1011.86
2019-06-27T15:50:33.431Z,1011.75
2019-06-27T15:57:42.480Z,1011.84
2019-06-27T15:58:31.351Z,1011.81
2019-06-27T15:59:27.704Z,1011.7
2019-06-27T16:00:24.255Z,1011.65
2019-06-27T16:01:23.563Z,1011.74
2019-06-27T16:02:18.524Z,1011.82
2019-06-27T16:04:43.367Z,1011.73
2019-06-27T16:05:25.240Z,1011.7
2019-06-27T16:06:25.167Z,1011.71
2019-06-27T16:07:24.416Z,1011.79
2019-06-27T16:11:19.905Z,1011.67
2019-06-27T16:12:13.304Z,1011.73
2019-06-27T16:13:13.940Z,1011.66
2019-06-27T16:14:24.571Z,1011.67
2019-06-27T16:15:24.877Z,1011.64
2019-06-27T16:16:25.481Z,1011.69
2019-06-27T16:17:25.781Z,1011.65
2019-06-27T16:18:33.310Z,1011.61
2019-06-27T16:19:38.879Z,1011.57
2019-06-27T16:20:39.283Z,1011.64
2019-06-27T16:21:40.618Z,1011.67
2019-06-27T16:22:49.849Z,1011.68
2019-06-27T16:23:50.176Z,1011.57
2019-06-27T16:24:51.283Z,1011.48
2019-06-27T16:25:53.383Z,1011.56
2019-06-27T16:26:54.623Z,1011.49
2019-06-27T16:27:56.908Z,1011.52
2019-06-27T16:28:56.300Z,1011.52
2019-06-27T16:29:55.795Z,1011.52
2019-06-27T16:30:58.758Z,1011.51
2019-06-27T16:32:00.629Z,1011.48
2019-06-27T16:33:04.089Z,1011.51
2019-06-27T16:34:07.192Z,1011.42
2019-06-27T16:35:07.887Z,1011.47
2019-06-27T16:36:24.491Z,1011.5
2019-06-27T16:36:24.822Z,1011.5
2019-06-27T16:36:25.394Z,1011.5
2019-06-27T16:37:11.394Z,1011.47
2019-06-27T16:38:14.037Z,1011.44
2019-06-27T16:39:19.890Z,1011.47
2019-06-27T16:40:22.105Z,1011.5
2019-06-27T16:41:28.340Z,1011.47
2019-06-27T16:42:32.703Z,1011.44
2019-06-27T16:43:35.255Z,1011.53
2019-06-27T16:44:36.665Z,1011.54
2019-06-27T16:45:40.445Z,1011.5
2019-06-27T16:46:38.851Z,1011.55
2019-06-27T16:47:40.470Z,1011.53
2019-06-27T16:48:40.211Z,1011.53
2019-06-27T16:49:43.263Z,1011.48
2019-06-27T16:50:42.915Z,1011.52
2019-06-27T16:51:42.761Z,1011.54
2019-06-27T16:52:47.089Z,1011.57
2019-06-27T16:53:47.122Z,1011.42
2019-06-27T16:54:51.846Z,1011.46
2019-06-27T16:55:52.711Z,1011.45
2019-06-27T16:56:52.298Z,1011.54
2019-06-27T16:57:52.043Z,1011.5
2019-06-27T16:58:52.628Z,1011.48
2019-06-27T16:59:55.152Z,1011.45
2019-06-27T17:00:56.245Z,1011.42
2019-06-27T17:01:59.264Z,1011.54
2019-06-27T17:03:02.086Z,1011.48
2019-06-27T17:04:02.060Z,1011.44
2019-06-27T17:05:03.012Z,1011.51
2019-06-27T17:06:02.794Z,1011.43
2019-06-27T17:07:06.251Z,1011.54
2019-06-27T17:08:11.403Z,1011.51
2019-06-27T17:09:11.716Z,1011.49
2019-06-27T17:10:15.642Z,1011.48
2019-06-27T17:11:19.033Z,1011.57
2019-06-27T17:12:36.555Z,1011.52
2019-06-27T17:13:41.047Z,1011.54
2019-06-27T17:14:41.206Z,1011.52
2019-06-27T17:15:42.213Z,1011.61
2019-06-27T17:16:44.571Z,1011.52
2019-06-27T17:17:44.137Z,1011.48
2019-06-27T17:18:44.878Z,1011.52
2019-06-27T17:19:45.011Z,1011.52
2019-06-27T17:20:47.108Z,1011.48
2019-06-27T17:21:50.329Z,1011.43
2019-06-27T17:22:57.870Z,1011.54
2019-06-27T17:24:03.202Z,1011.5
2019-06-27T17:25:05.011Z,1011.36
2019-06-27T17:26:11.149Z,1011.44
2019-06-27T17:26:11.673Z,1011.44
2019-06-27T17:27:06.218Z,1011.44
2019-06-27T17:28:06.636Z,1011.54
2019-06-27T17:29:17.108Z,1011.41
2019-06-27T17:30:25.116Z,1011.44
2019-06-27T17:31:30.715Z,1011.42
2019-06-27T17:32:41.509Z,1011.46
2019-06-27T17:33:41.374Z,1011.46
2019-06-27T17:34:42.420Z,1011.37
2019-06-27T17:35:46.359Z,1011.42
2019-06-27T17:36:57.061Z,1011.48
2019-06-27T17:36:57.862Z,1011.48
2019-06-27T17:37:49.286Z,1011.51
2019-06-27T17:38:51.669Z,1011.53
2019-06-27T17:39:55.059Z,1011.42
2019-06-27T17:40:54.784Z,1011.47
2019-06-27T17:41:54.282Z,1011.38
2019-06-27T17:42:56.023Z,1011.44
2019-06-27T17:43:59.934Z,1011.47
2019-06-27T17:45:08.325Z,1011.48
2019-06-27T17:46:10.546Z,1011.49
2019-06-27T17:47:12.650Z,1011.54
2019-06-27T17:48:13.040Z,1011.49
2019-06-27T17:49:19.718Z,1011.54
2019-06-27T17:50:19.900Z,1011.52
2019-06-27T17:51:19.609Z,1011.53
2019-06-27T17:52:23.453Z,1011.52
2019-06-27T17:53:23.953Z,1011.55
2019-06-27T17:54:28.091Z,1011.57
2019-06-27T17:55:31.158Z,1011.61
2019-06-27T17:56:42.423Z,1011.62
2019-06-27T17:57:42.094Z,1011.53
2019-06-27T17:58:45.967Z,1011.59
2019-06-27T17:59:48.673Z,1011.53
2019-06-27T18:00:48.335Z,1011.49
2019-06-27T18:01:47.706Z,1011.52
2019-06-27T18:02:50.216Z,1011.43
2019-06-27T18:03:52.898Z,1011.43
2019-06-27T18:04:59.617Z,1011.43
2019-06-27T18:06:05.007Z,1011.56
2019-06-27T18:07:14.874Z,1011.58
2019-06-27T18:08:12.652Z,1011.52
2019-06-27T18:09:12.152Z,1011.62
2019-06-27T18:10:12.560Z,1011.53
2019-06-27T18:11:14.717Z,1011.54
2019-06-27T18:12:13.756Z,1011.49
2019-06-27T18:13:24.105Z,1011.56
2019-06-27T18:14:22.048Z,1011.55
2019-06-27T18:15:24.640Z,1011.5
2019-06-27T18:16:27.561Z,1011.64
2019-06-27T18:17:34.026Z,1011.53
2019-06-27T18:18:33.029Z,1011.54
2019-06-27T18:19:35.870Z,1011.59
2019-06-27T18:20:39.000Z,1011.61
2019-06-27T18:21:38.555Z,1011.56
2019-06-27T18:22:37.871Z,1011.47
2019-06-27T18:23:40.720Z,1011.64
2019-06-27T18:24:41.722Z,1011.59
2019-06-27T18:25:42.911Z,1011.63
2019-06-27T18:26:42.179Z,1011.56
2019-06-27T18:27:48.361Z,1011.59
2019-06-27T18:28:48.813Z,1011.6
2019-06-27T18:29:51.894Z,1011.67
2019-06-27T18:30:53.622Z,1011.61
2019-06-27T18:31:52.908Z,1011.59
2019-06-27T18:32:58.618Z,1011.57
2019-06-27T18:34:00.238Z,1011.53
2019-06-27T18:35:06.309Z,1011.6
2019-06-27T18:36:08.680Z,1011.61
2019-06-27T18:37:09.163Z,1011.65
2019-06-27T18:38:11.543Z,1011.63
2019-06-27T18:39:11.625Z,1011.64
2019-06-27T18:40:16.906Z,1011.54
2019-06-27T18:41:18.047Z,1011.6
2019-06-27T18:42:17.566Z,1011.49
2019-06-27T18:43:18.600Z,1011.57
2019-06-27T18:44:18.118Z,1011.6
2019-06-27T18:45:19.337Z,1011.55
2019-06-27T18:46:29.187Z,1011.65
2019-06-27T19:09:39.471Z,1009.65
2019-06-27T19:10:46.037Z,1009.74
2019-06-27T19:11:43.250Z,1009.68
2019-06-27T19:12:52.170Z,1009.78
2019-06-27T19:13:47.522Z,1009.78
2019-06-27T19:14:49.501Z,1009.74
2019-06-27T19:15:52.531Z,1009.78
2019-06-27T19:16:53.335Z,1009.75
2019-06-27T19:18:03.633Z,1009.81
2019-06-27T19:19:06.886Z,1009.82
2019-06-27T19:20:08.096Z,1009.81
2019-06-27T19:21:05.530Z,1009.69
2019-06-27T19:22:06.357Z,1009.69
2019-06-27T19:23:11.073Z,1009.66
2019-06-27T19:24:09.997Z,1009.75
2019-06-27T19:25:13.393Z,1009.76
2019-06-27T19:26:10.012Z,1009.63
2019-06-27T19:27:16.467Z,1009.76
2019-06-27T19:28:15.986Z,1009.78
2019-06-27T19:29:15.673Z,1009.69
2019-06-27T19:30:18.786Z,1009.78
2019-06-27T19:31:22.198Z,1009.79
2019-06-27T19:32:29.379Z,1009.82
2019-06-27T19:33:28.587Z,1009.85
2019-06-27T19:34:35.336Z,1009.81
2019-06-27T19:35:34.296Z,1009.8
2019-06-27T19:36:42.540Z,1009.76
2019-06-27T19:37:40.059Z,1009.77
2019-06-27T19:38:43.507Z,1009.79
2019-06-27T19:39:38.924Z,1009.77
2019-06-27T19:40:44.885Z,1009.79
2019-06-27T19:41:45.953Z,1009.83
2019-06-27T19:42:45.918Z,1009.84
2019-06-27T19:43:53.568Z,1009.84
2019-06-27T19:44:55.432Z,1009.84
2019-06-27T19:46:00.454Z,1009.89
2019-06-27T19:47:03.276Z,1009.86
2019-06-27T19:48:00.554Z,1009.91
2019-06-27T19:49:07.999Z,1009.93
2019-06-27T22:51:01.990Z,1012.12
2019-06-27T22:51:52.401Z,1012.14
2019-06-27T22:54:01.510Z,1012.2
2019-06-27T22:55:00.086Z,1012.13
2019-06-27T22:55:58.996Z,1012.19
2019-06-27T22:57:01.382Z,1012.15
2019-06-27T22:57:59.557Z,1012.18
2019-06-27T22:59:00.924Z,1012.11
2019-06-27T23:00:06.373Z,1012.17
2019-06-27T23:01:07.582Z,1012.09
2019-06-27T23:02:06.361Z,1012.09
2019-06-27T23:03:09.055Z,1012.12
2019-06-27T23:04:06.575Z,1012.04
2019-06-27T23:06:22.949Z,1012.09
2019-06-27T23:07:04.244Z,1012.06
2019-06-27T23:08:06.049Z,1012.03
2019-06-27T23:09:06.083Z,1012.03
2019-06-27T23:10:07.208Z,1012.08
2019-06-27T23:11:08.696Z,1012.06
2019-06-27T23:12:08.029Z,1012.11
2019-06-27T23:13:08.193Z,1012.04
2019-06-27T23:14:06.846Z,1012.04
2019-06-27T23:16:21.133Z,1011.99
2019-06-27T23:17:06.869Z,1012
2019-06-27T23:18:08.339Z,1012.05
2019-06-27T23:19:07.414Z,1011.97
2019-06-27T23:20:07.946Z,1012.03
2019-06-27T23:27:51.691Z,1012.05
2019-06-27T23:28:39.352Z,1012.01
2019-06-27T23:30:48.412Z,1012.13
2019-06-27T23:31:50.867Z,1012.04
2019-06-27T23:32:50.641Z,1012.08
2019-06-27T23:34:06.299Z,1012.05
2019-06-27T23:35:08.839Z,1012.08
2019-06-27T23:36:09.191Z,1012.09
2019-06-27T23:37:11.743Z,1012.13
2019-06-27T23:38:12.091Z,1012.07
2019-06-27T23:39:12.427Z,1012.03
2019-06-27T23:40:19.763Z,1012.05
2019-06-27T23:41:19.781Z,1011.99
2019-06-27T23:42:20.007Z,1011.98
2019-06-27T23:43:28.953Z,1011.93
2019-06-27T23:44:28.448Z,1011.93
2019-06-27T23:45:30.521Z,1012.04
2019-06-27T23:46:29.383Z,1011.97
2019-06-27T23:47:28.430Z,1011.98
2019-06-27T23:48:28.320Z,1011.9
2019-06-27T23:49:27.343Z,1011.92
2019-06-27T23:50:27.030Z,1011.91
2019-06-27T23:51:33.624Z,1011.87
2019-06-27T23:52:32.600Z,1011.97
2019-06-27T23:53:31.760Z,1011.94
2019-06-27T23:54:32.507Z,1011.94
2019-06-27T23:55:30.885Z,1011.82
2019-06-27T23:56:30.994Z,1011.88
2019-06-27T23:57:30.402Z,1011.89
2019-06-27T23:58:32.905Z,1011.79
2019-06-27T23:59:32.127Z,1011.86
